sensor_id;sensor_type;location;lat;lon;timestamp;P1;durP1;ratioP1;P2;durP2;ratioP2
80117;SDS011;69424;48.770;-1.564;2023-10-19T00:01:12;17.60;;;2.60;;
80117;SDS011;69424;48.770;-1.564;2023-10-19T00:01:45;14.70;;;1.90;;
80117;SDS011;69424;48.770;-1.564;2023-10-19T00:02:19;11.30;;;2.10;;
80117;SDS011;69424;48.770;-1.564;2023-10-19T00:02:53;20.20;;;3.10;;
80117;SDS011;69424;48.770;-1.564;2023-10-19T00:03:27;13.10;;;1.80;;
80117;SDS011;69424;48.770;-1.564;2023-10-19T00:04:34;12.50;;;2.70;;
80117;SDS011;69424;48.770;-1.564;2023-10-19T00:05:08;17.50;;;2.40;;
80117;SDS011;69424;48.770;-1.564;2023-10-19T00:05:43;13.40;;;2.10;;
80117;SDS011;69424;48.770;-1.564;2023-10-19T00:06:17;12.50;;;2.70;;
80117;SDS011;69424;48.770;-1.564;2023-10-19T00:07:25;14.20;;;2.80;;
80117;SDS011;69424;48.770;-1.564;2023-10-19T00:07:59;15.30;;;2.10;;
80117;SDS011;69424;48.770;-1.564;2023-10-19T00:08:38;13.20;;;2.80;;
80117;SDS011;69424;48.770;-1.564;2023-10-19T00:09:14;14.90;;;2.30;;
80117;SDS011;69424;48.770;-1.564;2023-10-19T00:09:48;14.90;;;2.50;;
80117;SDS011;69424;48.770;-1.564;2023-10-19T00:10:25;12.20;;;2.40;;
80117;SDS011;69424;48.770;-1.564;2023-10-19T00:11:05;12.90;;;2.10;;
80117;SDS011;69424;48.770;-1.564;2023-10-19T00:11:38;13.50;;;2.40;;
80117;SDS011;69424;48.770;-1.564;2023-10-19T00:12:13;13.30;;;2.90;;
80117;SDS011;69424;48.770;-1.564;2023-10-19T00:12:48;11.20;;;2.10;;
80117;SDS011;69424;48.770;-1.564;2023-10-19T00:13:30;18.30;;;2.60;;
80117;SDS011;69424;48.770;-1.564;2023-10-19T00:14:03;16.20;;;2.30;;
80117;SDS011;69424;48.770;-1.564;2023-10-19T00:14:36;14.30;;;2.40;;
80117;SDS011;69424;48.770;-1.564;2023-10-19T00:15:10;12.30;;;2.10;;
80117;SDS011;69424;48.770;-1.564;2023-10-19T00:15:45;12.00;;;1.70;;
80117;SDS011;69424;48.770;-1.564;2023-10-19T00:16:41;8.90;;;2.30;;
80117;SDS011;69424;48.770;-1.564;2023-10-19T00:17:17;11.30;;;2.40;;
80117;SDS011;69424;48.770;-1.564;2023-10-19T00:17:53;16.10;;;2.00;;
80117;SDS011;69424;48.770;-1.564;2023-10-19T00:18:27;14.30;;;2.80;;
80117;SDS011;69424;48.770;-1.564;2023-10-19T00:19:04;12.60;;;2.30;;
80117;SDS011;69424;48.770;-1.564;2023-10-19T00:20:30;13.90;;;2.20;;
80117;SDS011;69424;48.770;-1.564;2023-10-19T00:21:18;13.20;;;2.20;;
80117;SDS011;69424;48.770;-1.564;2023-10-19T00:21:51;9.00;;;2.00;;
80117;SDS011;69424;48.770;-1.564;2023-10-19T00:22:27;15.10;;;2.30;;
80117;SDS011;69424;48.770;-1.564;2023-10-19T00:23:03;18.10;;;2.50;;
80117;SDS011;69424;48.770;-1.564;2023-10-19T00:23:38;12.10;;;2.40;;
80117;SDS011;69424;48.770;-1.564;2023-10-19T00:24:13;11.90;;;2.70;;
80117;SDS011;69424;48.770;-1.564;2023-10-19T00:24:49;11.70;;;2.20;;
80117;SDS011;69424;48.770;-1.564;2023-10-19T00:25:22;12.70;;;2.20;;
80117;SDS011;69424;48.770;-1.564;2023-10-19T00:25:56;15.70;;;1.90;;
80117;SDS011;69424;48.770;-1.564;2023-10-19T00:26:31;13.10;;;2.20;;
80117;SDS011;69424;48.770;-1.564;2023-10-19T00:27:04;13.10;;;2.40;;
80117;SDS011;69424;48.770;-1.564;2023-10-19T00:27:48;13.60;;;2.10;;
80117;SDS011;69424;48.770;-1.564;2023-10-19T00:28:21;14.70;;;2.70;;
80117;SDS011;69424;48.770;-1.564;2023-10-19T00:29:01;13.10;;;2.10;;
80117;SDS011;69424;48.770;-1.564;2023-10-19T00:29:51;14.20;;;2.30;;
80117;SDS011;69424;48.770;-1.564;2023-10-19T00:30:28;17.00;;;2.40;;
80117;SDS011;69424;48.770;-1.564;2023-10-19T00:31:08;14.00;;;2.40;;
80117;SDS011;69424;48.770;-1.564;2023-10-19T00:31:41;16.90;;;3.00;;
80117;SDS011;69424;48.770;-1.564;2023-10-19T00:32:15;14.60;;;2.20;;
80117;SDS011;69424;48.770;-1.564;2023-10-19T00:32:50;14.10;;;2.50;;
80117;SDS011;69424;48.770;-1.564;2023-10-19T00:33:25;18.20;;;2.90;;
80117;SDS011;69424;48.770;-1.564;2023-10-19T00:34:01;20.00;;;2.50;;
80117;SDS011;69424;48.770;-1.564;2023-10-19T00:34:36;14.40;;;2.60;;
80117;SDS011;69424;48.770;-1.564;2023-10-19T00:35:12;14.90;;;2.00;;
80117;SDS011;69424;48.770;-1.564;2023-10-19T00:36:10;17.50;;;2.10;;
80117;SDS011;69424;48.770;-1.564;2023-10-19T00:36:46;17.00;;;2.30;;
80117;SDS011;69424;48.770;-1.564;2023-10-19T00:37:20;14.90;;;2.80;;
80117;SDS011;69424;48.770;-1.564;2023-10-19T00:37:59;15.80;;;2.70;;
80117;SDS011;69424;48.770;-1.564;2023-10-19T00:38:51;11.60;;;2.20;;
80117;SDS011;69424;48.770;-1.564;2023-10-19T00:39:25;13.60;;;2.80;;
80117;SDS011;69424;48.770;-1.564;2023-10-19T00:40:00;16.90;;;3.40;;
80117;SDS011;69424;48.770;-1.564;2023-10-19T00:40:51;13.00;;;2.00;;
80117;SDS011;69424;48.770;-1.564;2023-10-19T00:41:32;11.30;;;2.10;;
80117;SDS011;69424;48.770;-1.564;2023-10-19T00:42:39;12.10;;;2.00;;
80117;SDS011;69424;48.770;-1.564;2023-10-19T00:43:30;11.10;;;1.80;;
80117;SDS011;69424;48.770;-1.564;2023-10-19T00:44:09;20.00;;;3.10;;
80117;SDS011;69424;48.770;-1.564;2023-10-19T00:44:48;9.80;;;2.00;;
80117;SDS011;69424;48.770;-1.564;2023-10-19T00:45:24;15.30;;;2.50;;
80117;SDS011;69424;48.770;-1.564;2023-10-19T00:46:00;12.10;;;2.20;;
80117;SDS011;69424;48.770;-1.564;2023-10-19T00:46:58;14.70;;;2.40;;
80117;SDS011;69424;48.770;-1.564;2023-10-19T00:48:14;13.80;;;1.80;;
80117;SDS011;69424;48.770;-1.564;2023-10-19T00:48:54;16.30;;;2.40;;
80117;SDS011;69424;48.770;-1.564;2023-10-19T00:49:32;11.80;;;2.60;;
80117;SDS011;69424;48.770;-1.564;2023-10-19T00:50:06;19.40;;;2.60;;
80117;SDS011;69424;48.770;-1.564;2023-10-19T00:50:44;10.70;;;2.30;;
80117;SDS011;69424;48.770;-1.564;2023-10-19T00:51:23;13.30;;;2.30;;
80117;SDS011;69424;48.770;-1.564;2023-10-19T00:52:01;15.00;;;2.50;;
80117;SDS011;69424;48.770;-1.564;2023-10-19T00:52:44;12.90;;;2.50;;
80117;SDS011;69424;48.770;-1.564;2023-10-19T00:53:24;11.70;;;2.20;;
80117;SDS011;69424;48.770;-1.564;2023-10-19T00:54:47;14.40;;;2.20;;
80117;SDS011;69424;48.770;-1.564;2023-10-19T00:55:23;12.90;;;2.50;;
80117;SDS011;69424;48.770;-1.564;2023-10-19T00:56:01;13.90;;;2.70;;
80117;SDS011;69424;48.770;-1.564;2023-10-19T00:56:38;11.90;;;1.80;;
80117;SDS011;69424;48.770;-1.564;2023-10-19T00:57:18;13.90;;;2.50;;
80117;SDS011;69424;48.770;-1.564;2023-10-19T00:58:08;15.00;;;1.90;;
80117;SDS011;69424;48.770;-1.564;2023-10-19T00:58:42;12.10;;;2.60;;
80117;SDS011;69424;48.770;-1.564;2023-10-19T00:59:20;15.90;;;2.50;;
80117;SDS011;69424;48.770;-1.564;2023-10-19T00:59:56;16.40;;;2.80;;
80117;SDS011;69424;48.770;-1.564;2023-10-19T01:00:44;12.50;;;2.20;;
80117;SDS011;69424;48.770;-1.564;2023-10-19T01:01:17;11.40;;;2.70;;
80117;SDS011;69424;48.770;-1.564;2023-10-19T01:01:55;13.10;;;1.90;;
80117;SDS011;69424;48.770;-1.564;2023-10-19T01:02:50;21.00;;;2.80;;
80117;SDS011;69424;48.770;-1.564;2023-10-19T01:03:25;12.50;;;2.50;;
80117;SDS011;69424;48.770;-1.564;2023-10-19T01:04:05;8.30;;;1.50;;
80117;SDS011;69424;48.770;-1.564;2023-10-19T01:04:39;13.10;;;2.80;;
80117;SDS011;69424;48.770;-1.564;2023-10-19T01:05:15;13.90;;;2.30;;
80117;SDS011;69424;48.770;-1.564;2023-10-19T01:05:54;12.90;;;2.20;;
80117;SDS011;69424;48.770;-1.564;2023-10-19T01:06:27;15.60;;;2.90;;
80117;SDS011;69424;48.770;-1.564;2023-10-19T01:07:05;12.30;;;2.60;;
80117;SDS011;69424;48.770;-1.564;2023-10-19T01:07:48;15.10;;;2.10;;
80117;SDS011;69424;48.770;-1.564;2023-10-19T01:08:29;21.90;;;2.70;;
80117;SDS011;69424;48.770;-1.564;2023-10-19T01:09:13;16.90;;;3.00;;
80117;SDS011;69424;48.770;-1.564;2023-10-19T01:09:47;13.70;;;2.90;;
80117;SDS011;69424;48.770;-1.564;2023-10-19T01:10:25;15.60;;;2.20;;
80117;SDS011;69424;48.770;-1.564;2023-10-19T01:11:01;12.70;;;2.60;;
80117;SDS011;69424;48.770;-1.564;2023-10-19T01:11:36;15.30;;;2.10;;
80117;SDS011;69424;48.770;-1.564;2023-10-19T01:12:10;13.30;;;2.50;;
80117;SDS011;69424;48.770;-1.564;2023-10-19T01:13:05;16.00;;;2.20;;
80117;SDS011;69424;48.770;-1.564;2023-10-19T01:13:38;15.60;;;2.70;;
80117;SDS011;69424;48.770;-1.564;2023-10-19T01:14:18;13.40;;;2.40;;
80117;SDS011;69424;48.770;-1.564;2023-10-19T01:15:40;18.20;;;3.00;;
80117;SDS011;69424;48.770;-1.564;2023-10-19T01:16:14;15.50;;;2.70;;
80117;SDS011;69424;48.770;-1.564;2023-10-19T01:16:53;11.90;;;2.40;;
80117;SDS011;69424;48.770;-1.564;2023-10-19T01:17:30;12.10;;;2.10;;
80117;SDS011;69424;48.770;-1.564;2023-10-19T01:18:05;13.70;;;2.70;;
80117;SDS011;69424;48.770;-1.564;2023-10-19T01:18:40;13.60;;;2.00;;
80117;SDS011;69424;48.770;-1.564;2023-10-19T01:19:15;14.40;;;2.50;;
80117;SDS011;69424;48.770;-1.564;2023-10-19T01:19:53;10.60;;;2.40;;
80117;SDS011;69424;48.770;-1.564;2023-10-19T01:21:04;10.00;;;1.90;;
80117;SDS011;69424;48.770;-1.564;2023-10-19T01:21:39;16.50;;;3.00;;
80117;SDS011;69424;48.770;-1.564;2023-10-19T01:22:17;12.80;;;2.20;;
80117;SDS011;69424;48.770;-1.564;2023-10-19T01:22:52;12.00;;;2.00;;
80117;SDS011;69424;48.770;-1.564;2023-10-19T01:23:43;19.10;;;3.00;;
80117;SDS011;69424;48.770;-1.564;2023-10-19T01:24:18;15.70;;;2.50;;
80117;SDS011;69424;48.770;-1.564;2023-10-19T01:25:15;15.50;;;2.50;;
80117;SDS011;69424;48.770;-1.564;2023-10-19T01:25:57;14.90;;;2.00;;
80117;SDS011;69424;48.770;-1.564;2023-10-19T01:26:32;11.20;;;2.10;;
80117;SDS011;69424;48.770;-1.564;2023-10-19T01:27:10;16.70;;;3.10;;
80117;SDS011;69424;48.770;-1.564;2023-10-19T01:27:43;15.20;;;3.20;;
80117;SDS011;69424;48.770;-1.564;2023-10-19T01:28:16;17.00;;;2.80;;
80117;SDS011;69424;48.770;-1.564;2023-10-19T01:28:50;16.00;;;2.50;;
80117;SDS011;69424;48.770;-1.564;2023-10-19T01:29:27;10.40;;;2.20;;
80117;SDS011;69424;48.770;-1.564;2023-10-19T01:30:00;16.10;;;2.70;;
80117;SDS011;69424;48.770;-1.564;2023-10-19T01:30:36;12.80;;;2.50;;
80117;SDS011;69424;48.770;-1.564;2023-10-19T01:31:11;15.20;;;2.60;;
80117;SDS011;69424;48.770;-1.564;2023-10-19T01:32:10;11.10;;;2.40;;
80117;SDS011;69424;48.770;-1.564;2023-10-19T01:32:44;16.80;;;2.90;;
80117;SDS011;69424;48.770;-1.564;2023-10-19T01:33:18;13.80;;;2.40;;
80117;SDS011;69424;48.770;-1.564;2023-10-19T01:33:52;10.70;;;2.40;;
80117;SDS011;69424;48.770;-1.564;2023-10-19T01:34:28;17.40;;;2.70;;
80117;SDS011;69424;48.770;-1.564;2023-10-19T01:35:01;16.80;;;2.90;;
80117;SDS011;69424;48.770;-1.564;2023-10-19T01:36:26;12.00;;;1.90;;
80117;SDS011;69424;48.770;-1.564;2023-10-19T01:37:01;16.90;;;2.40;;
80117;SDS011;69424;48.770;-1.564;2023-10-19T01:37:37;13.70;;;3.50;;
80117;SDS011;69424;48.770;-1.564;2023-10-19T01:38:10;15.10;;;2.80;;
80117;SDS011;69424;48.770;-1.564;2023-10-19T01:38:44;11.70;;;1.90;;
80117;SDS011;69424;48.770;-1.564;2023-10-19T01:39:19;17.50;;;2.50;;
80117;SDS011;69424;48.770;-1.564;2023-10-19T01:39:52;11.10;;;2.20;;
80117;SDS011;69424;48.770;-1.564;2023-10-19T01:40:27;16.10;;;2.50;;
80117;SDS011;69424;48.770;-1.564;2023-10-19T01:41:07;12.50;;;3.00;;
80117;SDS011;69424;48.770;-1.564;2023-10-19T01:41:48;12.10;;;2.20;;
80117;SDS011;69424;48.770;-1.564;2023-10-19T01:42:23;11.20;;;2.70;;
80117;SDS011;69424;48.770;-1.564;2023-10-19T01:42:57;14.40;;;2.60;;
80117;SDS011;69424;48.770;-1.564;2023-10-19T01:43:32;18.20;;;3.00;;
80117;SDS011;69424;48.770;-1.564;2023-10-19T01:44:06;16.60;;;2.60;;
80117;SDS011;69424;48.770;-1.564;2023-10-19T01:44:39;12.40;;;2.20;;
80117;SDS011;69424;48.770;-1.564;2023-10-19T01:45:47;13.60;;;2.30;;
80117;SDS011;69424;48.770;-1.564;2023-10-19T01:46:21;20.60;;;2.30;;
80117;SDS011;69424;48.770;-1.564;2023-10-19T01:46:56;11.80;;;1.90;;
80117;SDS011;69424;48.770;-1.564;2023-10-19T01:47:30;14.00;;;2.00;;
80117;SDS011;69424;48.770;-1.564;2023-10-19T01:48:03;10.90;;;1.90;;
80117;SDS011;69424;48.770;-1.564;2023-10-19T01:48:39;18.30;;;3.30;;
80117;SDS011;69424;48.770;-1.564;2023-10-19T01:49:19;16.00;;;3.10;;
80117;SDS011;69424;48.770;-1.564;2023-10-19T01:50:03;17.70;;;2.80;;
80117;SDS011;69424;48.770;-1.564;2023-10-19T01:50:39;11.70;;;2.00;;
80117;SDS011;69424;48.770;-1.564;2023-10-19T01:51:14;12.00;;;1.90;;
80117;SDS011;69424;48.770;-1.564;2023-10-19T01:51:48;10.10;;;2.20;;
80117;SDS011;69424;48.770;-1.564;2023-10-19T01:52:57;9.60;;;1.90;;
80117;SDS011;69424;48.770;-1.564;2023-10-19T01:53:34;14.10;;;3.40;;
80117;SDS011;69424;48.770;-1.564;2023-10-19T01:54:12;16.60;;;2.50;;
80117;SDS011;69424;48.770;-1.564;2023-10-19T01:54:47;15.10;;;2.60;;
80117;SDS011;69424;48.770;-1.564;2023-10-19T01:55:53;10.00;;;1.70;;
80117;SDS011;69424;48.770;-1.564;2023-10-19T01:56:30;14.90;;;2.20;;
80117;SDS011;69424;48.770;-1.564;2023-10-19T01:57:03;11.90;;;2.20;;
80117;SDS011;69424;48.770;-1.564;2023-10-19T01:57:38;11.10;;;2.40;;
80117;SDS011;69424;48.770;-1.564;2023-10-19T01:58:12;11.70;;;2.00;;
80117;SDS011;69424;48.770;-1.564;2023-10-19T01:58:47;13.70;;;2.20;;
80117;SDS011;69424;48.770;-1.564;2023-10-19T01:59:24;10.10;;;2.10;;
80117;SDS011;69424;48.770;-1.564;2023-10-19T02:00:00;15.60;;;2.10;;
80117;SDS011;69424;48.770;-1.564;2023-10-19T02:01:00;13.40;;;2.30;;
80117;SDS011;69424;48.770;-1.564;2023-10-19T02:01:35;14.90;;;2.30;;
80117;SDS011;69424;48.770;-1.564;2023-10-19T02:02:10;14.40;;;2.60;;
80117;SDS011;69424;48.770;-1.564;2023-10-19T02:02:45;11.70;;;1.90;;
80117;SDS011;69424;48.770;-1.564;2023-10-19T02:03:20;18.40;;;2.20;;
80117;SDS011;69424;48.770;-1.564;2023-10-19T02:04:01;15.10;;;2.90;;
80117;SDS011;69424;48.770;-1.564;2023-10-19T02:04:36;10.70;;;2.30;;
80117;SDS011;69424;48.770;-1.564;2023-10-19T02:05:09;11.60;;;2.10;;
80117;SDS011;69424;48.770;-1.564;2023-10-19T02:06:23;11.60;;;2.10;;
80117;SDS011;69424;48.770;-1.564;2023-10-19T02:07:01;11.50;;;1.60;;
80117;SDS011;69424;48.770;-1.564;2023-10-19T02:07:36;15.40;;;2.20;;
80117;SDS011;69424;48.770;-1.564;2023-10-19T02:08:09;11.90;;;2.50;;
80117;SDS011;69424;48.770;-1.564;2023-10-19T02:08:46;16.50;;;2.60;;
80117;SDS011;69424;48.770;-1.564;2023-10-19T02:09:23;13.10;;;2.10;;
80117;SDS011;69424;48.770;-1.564;2023-10-19T02:09:58;11.60;;;1.80;;
80117;SDS011;69424;48.770;-1.564;2023-10-19T02:10:31;14.50;;;2.70;;
80117;SDS011;69424;48.770;-1.564;2023-10-19T02:11:05;16.80;;;2.50;;
80117;SDS011;69424;48.770;-1.564;2023-10-19T02:11:52;13.30;;;2.10;;
80117;SDS011;69424;48.770;-1.564;2023-10-19T02:12:29;10.20;;;1.90;;
80117;SDS011;69424;48.770;-1.564;2023-10-19T02:13:56;12.60;;;2.30;;
80117;SDS011;69424;48.770;-1.564;2023-10-19T02:14:37;16.10;;;2.70;;
80117;SDS011;69424;48.770;-1.564;2023-10-19T02:15:10;13.40;;;2.30;;
80117;SDS011;69424;48.770;-1.564;2023-10-19T02:15:44;16.30;;;2.40;;
80117;SDS011;69424;48.770;-1.564;2023-10-19T02:16:18;15.80;;;2.40;;
80117;SDS011;69424;48.770;-1.564;2023-10-19T02:16:55;14.00;;;2.50;;
80117;SDS011;69424;48.770;-1.564;2023-10-19T02:17:30;10.80;;;2.00;;
80117;SDS011;69424;48.770;-1.564;2023-10-19T02:18:04;10.40;;;2.20;;
80117;SDS011;69424;48.770;-1.564;2023-10-19T02:18:37;11.60;;;2.20;;
80117;SDS011;69424;48.770;-1.564;2023-10-19T02:19:11;9.30;;;2.10;;
80117;SDS011;69424;48.770;-1.564;2023-10-19T02:19:45;13.90;;;2.00;;
80117;SDS011;69424;48.770;-1.564;2023-10-19T02:20:19;11.00;;;1.80;;
80117;SDS011;69424;48.770;-1.564;2023-10-19T02:21:12;11.20;;;2.50;;
80117;SDS011;69424;48.770;-1.564;2023-10-19T02:21:47;18.00;;;2.80;;
80117;SDS011;69424;48.770;-1.564;2023-10-19T02:22:21;16.80;;;2.50;;
80117;SDS011;69424;48.770;-1.564;2023-10-19T02:22:54;11.20;;;1.70;;
80117;SDS011;69424;48.770;-1.564;2023-10-19T02:23:29;16.00;;;2.50;;
80117;SDS011;69424;48.770;-1.564;2023-10-19T02:24:36;9.70;;;1.60;;
80117;SDS011;69424;48.770;-1.564;2023-10-19T02:25:09;15.00;;;2.10;;
80117;SDS011;69424;48.770;-1.564;2023-10-19T02:25:43;11.50;;;2.00;;
80117;SDS011;69424;48.770;-1.564;2023-10-19T02:26:18;10.50;;;1.80;;
80117;SDS011;69424;48.770;-1.564;2023-10-19T02:26:56;15.40;;;2.50;;
80117;SDS011;69424;48.770;-1.564;2023-10-19T02:27:30;12.40;;;2.00;;
80117;SDS011;69424;48.770;-1.564;2023-10-19T02:28:06;17.20;;;2.60;;
80117;SDS011;69424;48.770;-1.564;2023-10-19T02:28:39;13.50;;;2.40;;
80117;SDS011;69424;48.770;-1.564;2023-10-19T02:29:13;12.70;;;2.50;;
80117;SDS011;69424;48.770;-1.564;2023-10-19T02:29:46;11.90;;;1.60;;
80117;SDS011;69424;48.770;-1.564;2023-10-19T02:30:52;11.20;;;2.00;;
80117;SDS011;69424;48.770;-1.564;2023-10-19T02:31:27;12.50;;;2.10;;
80117;SDS011;69424;48.770;-1.564;2023-10-19T02:32:37;14.60;;;2.20;;
80117;SDS011;69424;48.770;-1.564;2023-10-19T02:33:10;11.90;;;2.10;;
80117;SDS011;69424;48.770;-1.564;2023-10-19T02:33:45;9.60;;;2.00;;
80117;SDS011;69424;48.770;-1.564;2023-10-19T02:34:18;10.40;;;2.40;;
80117;SDS011;69424;48.770;-1.564;2023-10-19T02:34:52;11.40;;;2.30;;
80117;SDS011;69424;48.770;-1.564;2023-10-19T02:35:58;11.80;;;2.10;;
80117;SDS011;69424;48.770;-1.564;2023-10-19T02:36:31;9.40;;;2.00;;
80117;SDS011;69424;48.770;-1.564;2023-10-19T02:37:04;7.70;;;1.60;;
80117;SDS011;69424;48.770;-1.564;2023-10-19T02:38:11;9.90;;;1.60;;
80117;SDS011;69424;48.770;-1.564;2023-10-19T02:38:46;9.60;;;2.30;;
80117;SDS011;69424;48.770;-1.564;2023-10-19T02:39:24;6.90;;;1.60;;
80117;SDS011;69424;48.770;-1.564;2023-10-19T02:40:03;9.10;;;1.70;;
80117;SDS011;69424;48.770;-1.564;2023-10-19T02:40:45;12.70;;;2.30;;
80117;SDS011;69424;48.770;-1.564;2023-10-19T02:41:19;10.70;;;2.00;;
80117;SDS011;69424;48.770;-1.564;2023-10-19T02:41:53;18.90;;;2.40;;
80117;SDS011;69424;48.770;-1.564;2023-10-19T02:42:27;10.00;;;2.10;;
80117;SDS011;69424;48.770;-1.564;2023-10-19T02:43:00;11.10;;;2.00;;
80117;SDS011;69424;48.770;-1.564;2023-10-19T02:43:37;8.50;;;1.60;;
80117;SDS011;69424;48.770;-1.564;2023-10-19T02:44:12;8.20;;;2.00;;
80117;SDS011;69424;48.770;-1.564;2023-10-19T02:44:51;9.70;;;1.60;;
80117;SDS011;69424;48.770;-1.564;2023-10-19T02:45:25;11.00;;;2.40;;
80117;SDS011;69424;48.770;-1.564;2023-10-19T02:46:33;12.80;;;2.10;;
80117;SDS011;69424;48.770;-1.564;2023-10-19T02:47:07;6.90;;;1.50;;
80117;SDS011;69424;48.770;-1.564;2023-10-19T02:47:43;10.30;;;1.90;;
80117;SDS011;69424;48.770;-1.564;2023-10-19T02:48:17;9.70;;;1.50;;
80117;SDS011;69424;48.770;-1.564;2023-10-19T02:48:50;9.70;;;2.20;;
80117;SDS011;69424;48.770;-1.564;2023-10-19T02:49:58;9.60;;;2.50;;
80117;SDS011;69424;48.770;-1.564;2023-10-19T02:50:32;10.50;;;2.80;;
80117;SDS011;69424;48.770;-1.564;2023-10-19T02:51:06;5.90;;;1.30;;
80117;SDS011;69424;48.770;-1.564;2023-10-19T02:51:44;9.30;;;1.40;;
80117;SDS011;69424;48.770;-1.564;2023-10-19T02:52:18;10.80;;;2.00;;
80117;SDS011;69424;48.770;-1.564;2023-10-19T02:52:51;11.50;;;2.00;;
80117;SDS011;69424;48.770;-1.564;2023-10-19T02:53:24;11.80;;;1.90;;
80117;SDS011;69424;48.770;-1.564;2023-10-19T02:54:01;7.80;;;1.80;;
80117;SDS011;69424;48.770;-1.564;2023-10-19T02:54:35;9.70;;;1.70;;
80117;SDS011;69424;48.770;-1.564;2023-10-19T02:55:09;5.00;;;1.20;;
80117;SDS011;69424;48.770;-1.564;2023-10-19T02:55:42;12.70;;;2.50;;
80117;SDS011;69424;48.770;-1.564;2023-10-19T02:56:16;10.10;;;2.20;;
80117;SDS011;69424;48.770;-1.564;2023-10-19T02:56:50;12.10;;;1.70;;
80117;SDS011;69424;48.770;-1.564;2023-10-19T02:57:27;11.40;;;2.00;;
80117;SDS011;69424;48.770;-1.564;2023-10-19T02:58:03;9.50;;;1.90;;
80117;SDS011;69424;48.770;-1.564;2023-10-19T02:58:40;10.50;;;1.90;;
80117;SDS011;69424;48.770;-1.564;2023-10-19T02:59:24;11.40;;;1.50;;
80117;SDS011;69424;48.770;-1.564;2023-10-19T03:00:05;10.70;;;1.70;;
80117;SDS011;69424;48.770;-1.564;2023-10-19T03:00:46;10.30;;;1.60;;
80117;SDS011;69424;48.770;-1.564;2023-10-19T03:01:20;7.70;;;1.50;;
80117;SDS011;69424;48.770;-1.564;2023-10-19T03:02:01;7.80;;;1.60;;
80117;SDS011;69424;48.770;-1.564;2023-10-19T03:02:43;12.00;;;1.80;;
80117;SDS011;69424;48.770;-1.564;2023-10-19T03:03:17;9.30;;;2.10;;
80117;SDS011;69424;48.770;-1.564;2023-10-19T03:04:24;8.30;;;1.60;;
80117;SDS011;69424;48.770;-1.564;2023-10-19T03:04:58;8.70;;;1.70;;
80117;SDS011;69424;48.770;-1.564;2023-10-19T03:05:33;14.40;;;2.60;;
80117;SDS011;69424;48.770;-1.564;2023-10-19T03:06:07;8.10;;;1.80;;
80117;SDS011;69424;48.770;-1.564;2023-10-19T03:06:40;6.70;;;1.10;;
80117;SDS011;69424;48.770;-1.564;2023-10-19T03:07:14;9.10;;;1.60;;
80117;SDS011;69424;48.770;-1.564;2023-10-19T03:07:49;8.60;;;1.80;;
80117;SDS011;69424;48.770;-1.564;2023-10-19T03:08:22;8.00;;;1.90;;
80117;SDS011;69424;48.770;-1.564;2023-10-19T03:08:59;8.70;;;1.90;;
80117;SDS011;69424;48.770;-1.564;2023-10-19T03:09:46;8.30;;;1.70;;
80117;SDS011;69424;48.770;-1.564;2023-10-19T03:11:15;6.30;;;1.80;;
80117;SDS011;69424;48.770;-1.564;2023-10-19T03:11:49;5.70;;;1.60;;
80117;SDS011;69424;48.770;-1.564;2023-10-19T03:12:26;7.80;;;1.70;;
80117;SDS011;69424;48.770;-1.564;2023-10-19T03:13:00;6.70;;;1.20;;
80117;SDS011;69424;48.770;-1.564;2023-10-19T03:13:37;7.70;;;1.30;;
80117;SDS011;69424;48.770;-1.564;2023-10-19T03:14:12;8.50;;;1.60;;
80117;SDS011;69424;48.770;-1.564;2023-10-19T03:14:46;8.30;;;1.60;;
80117;SDS011;69424;48.770;-1.564;2023-10-19T03:15:21;7.40;;;1.40;;
80117;SDS011;69424;48.770;-1.564;2023-10-19T03:15:54;7.20;;;1.40;;
80117;SDS011;69424;48.770;-1.564;2023-10-19T03:16:31;7.00;;;1.80;;
80117;SDS011;69424;48.770;-1.564;2023-10-19T03:17:04;4.30;;;1.20;;
80117;SDS011;69424;48.770;-1.564;2023-10-19T03:17:38;8.80;;;1.10;;
80117;SDS011;69424;48.770;-1.564;2023-10-19T03:18:15;4.60;;;1.10;;
80117;SDS011;69424;48.770;-1.564;2023-10-19T03:18:48;4.20;;;1.10;;
80117;SDS011;69424;48.770;-1.564;2023-10-19T03:19:22;5.30;;;1.10;;
80117;SDS011;69424;48.770;-1.564;2023-10-19T03:19:58;6.80;;;1.20;;
80117;SDS011;69424;48.770;-1.564;2023-10-19T03:20:31;5.10;;;1.10;;
80117;SDS011;69424;48.770;-1.564;2023-10-19T03:21:06;5.80;;;1.50;;
80117;SDS011;69424;48.770;-1.564;2023-10-19T03:21:41;5.50;;;0.80;;
80117;SDS011;69424;48.770;-1.564;2023-10-19T03:22:18;2.60;;;0.90;;
80117;SDS011;69424;48.770;-1.564;2023-10-19T03:22:52;3.70;;;0.80;;
80117;SDS011;69424;48.770;-1.564;2023-10-19T03:23:25;2.90;;;0.80;;
80117;SDS011;69424;48.770;-1.564;2023-10-19T03:23:59;6.20;;;1.40;;
80117;SDS011;69424;48.770;-1.564;2023-10-19T03:24:38;4.30;;;0.90;;
80117;SDS011;69424;48.770;-1.564;2023-10-19T03:25:14;4.70;;;0.70;;
80117;SDS011;69424;48.770;-1.564;2023-10-19T03:26:25;1.90;;;0.60;;
80117;SDS011;69424;48.770;-1.564;2023-10-19T03:27:10;3.80;;;0.80;;
80117;SDS011;69424;48.770;-1.564;2023-10-19T03:27:49;2.40;;;0.50;;
80117;SDS011;69424;48.770;-1.564;2023-10-19T03:28:23;2.20;;;0.50;;
80117;SDS011;69424;48.770;-1.564;2023-10-19T03:29:00;3.50;;;0.80;;
80117;SDS011;69424;48.770;-1.564;2023-10-19T03:29:56;3.60;;;0.50;;
80117;SDS011;69424;48.770;-1.564;2023-10-19T03:30:32;2.50;;;0.60;;
80117;SDS011;69424;48.770;-1.564;2023-10-19T03:31:11;2.20;;;0.50;;
80117;SDS011;69424;48.770;-1.564;2023-10-19T03:31:51;6.10;;;0.80;;
80117;SDS011;69424;48.770;-1.564;2023-10-19T03:32:25;3.30;;;0.50;;
80117;SDS011;69424;48.770;-1.564;2023-10-19T03:33:05;2.50;;;0.50;;
80117;SDS011;69424;48.770;-1.564;2023-10-19T03:33:42;4.00;;;1.20;;
80117;SDS011;69424;48.770;-1.564;2023-10-19T03:34:15;4.40;;;0.80;;
80117;SDS011;69424;48.770;-1.564;2023-10-19T03:34:52;2.90;;;0.80;;
80117;SDS011;69424;48.770;-1.564;2023-10-19T03:35:29;1.50;;;0.50;;
80117;SDS011;69424;48.770;-1.564;2023-10-19T03:36:05;2.60;;;0.70;;
80117;SDS011;69424;48.770;-1.564;2023-10-19T03:36:45;2.80;;;0.50;;
80117;SDS011;69424;48.770;-1.564;2023-10-19T03:37:53;5.40;;;1.00;;
80117;SDS011;69424;48.770;-1.564;2023-10-19T03:38:30;3.10;;;0.60;;
80117;SDS011;69424;48.770;-1.564;2023-10-19T03:39:07;5.80;;;1.10;;
80117;SDS011;69424;48.770;-1.564;2023-10-19T03:39:49;3.50;;;0.70;;
80117;SDS011;69424;48.770;-1.564;2023-10-19T03:40:24;2.90;;;0.60;;
80117;SDS011;69424;48.770;-1.564;2023-10-19T03:41:04;2.60;;;0.40;;
80117;SDS011;69424;48.770;-1.564;2023-10-19T03:41:40;2.30;;;0.60;;
80117;SDS011;69424;48.770;-1.564;2023-10-19T03:42:17;3.70;;;0.80;;
80117;SDS011;69424;48.770;-1.564;2023-10-19T03:42:50;4.10;;;0.40;;
80117;SDS011;69424;48.770;-1.564;2023-10-19T03:43:27;4.30;;;0.80;;
80117;SDS011;69424;48.770;-1.564;2023-10-19T03:44:01;4.10;;;1.10;;
80117;SDS011;69424;48.770;-1.564;2023-10-19T03:44:34;4.30;;;0.90;;
80117;SDS011;69424;48.770;-1.564;2023-10-19T03:45:22;3.90;;;1.70;;
80117;SDS011;69424;48.770;-1.564;2023-10-19T03:45:57;3.80;;;0.80;;
80117;SDS011;69424;48.770;-1.564;2023-10-19T03:46:31;1.70;;;0.40;;
80117;SDS011;69424;48.770;-1.564;2023-10-19T03:47:05;4.60;;;0.90;;
80117;SDS011;69424;48.770;-1.564;2023-10-19T03:47:39;1.80;;;0.50;;
80117;SDS011;69424;48.770;-1.564;2023-10-19T03:48:17;3.50;;;0.50;;
80117;SDS011;69424;48.770;-1.564;2023-10-19T03:49:00;3.50;;;0.60;;
80117;SDS011;69424;48.770;-1.564;2023-10-19T03:49:52;4.90;;;0.90;;
80117;SDS011;69424;48.770;-1.564;2023-10-19T03:50:26;2.80;;;0.80;;
80117;SDS011;69424;48.770;-1.564;2023-10-19T03:51:02;1.60;;;0.40;;
80117;SDS011;69424;48.770;-1.564;2023-10-19T03:51:36;1.70;;;0.40;;
80117;SDS011;69424;48.770;-1.564;2023-10-19T03:52:31;1.10;;;0.40;;
80117;SDS011;69424;48.770;-1.564;2023-10-19T03:53:04;3.70;;;0.70;;